M I D A S
Marine Information and Data Acquisition System
Tripno 1024 of the Zeeleeuw from 2006-01-17 09:22:20 to 2006-01-17 12:20:56
Back to CruiseResearch ActivitiesStationsMapUnderway DataData graphs

EquipmentUnitsComment
TimeDGPSUTC
LatitudeDGPSDM.mWGS84
LongitudeDGPSDM.mWGS84
HeadingGyrodeg 
SOGDGPSknotsSpeed over ground
COGDGPSdegCourse over ground
DepthEcho soundermeters200 kHz
Missing or incorrect values are displayed as -999
Navigation data collected by the RV Zeeleeuw from 2006-01-17 09:22:37 to 2006-01-17 12:33:39
                                                                                    Next 1000 lines
Time Latitude Longitude Heading SOG COG Depth
2006-01-17 09:22:47 51°13.602 2°56.095 116.7 1 296 4.9
2006-01-17 09:22:53 51°13.603 2°56.092 116.7 1.4 296 5
2006-01-17 09:22:58 51°13.604 2°56.088 116.8 1.7 298 5.1
2006-01-17 09:23:03 51°13.605 2°56.084 116.9 2 297 -999
2006-01-17 09:23:08 51°13.606 2°56.079 116.2 2.3 295 -999
2006-01-17 09:23:14 51°13.608 2°56.073 115.7 2.6 296 -999
2006-01-17 09:23:18 51°13.609 2°56.068 115.2 2.8 296 -999
2006-01-17 09:23:24 51°13.612 2°56.061 114.7 3 294 -999
2006-01-17 09:23:28 51°13.613 2°56.056 114.3 3.2 294 -999
2006-01-17 09:23:34 51°13.616 2°56.047 113.5 3.5 291 -999
2006-01-17 09:23:38 51°13.617 2°56.041 112.4 3.6 291 -999
2006-01-17 09:23:44 51°13.619 2°56.032 111.4 3.7 289 -999
2006-01-17 09:23:48 51°13.621 2°56.026 110.4 3.7 289 -999
2006-01-17 09:23:54 51°13.623 2°56.016 109.7 3.8 287 -999
2006-01-17 09:23:58 51°13.624 2°56.01 109.4 4 288 -999
2006-01-17 09:24:04 51°13.626 2°55.999 109.4 4.2 287 -999
2006-01-17 09:24:08 51°13.627 2°55.991 109.6 4.3 287 -999
2006-01-17 09:24:13 51°13.629 2°55.982 110.3 4.5 287 -999
2006-01-17 09:24:18 51°13.631 2°55.972 111.5 4.6 289 -999
2006-01-17 09:24:24 51°13.633 2°55.961 113.1 4.6 289 -999
2006-01-17 09:24:28 51°13.635 2°55.953 113.9 4.5 290 -999
2006-01-17 09:24:33 51°13.638 2°55.944 114.6 4.5 291 -999
2006-01-17 09:24:38 51°13.64 2°55.935 115.4 4.5 292 -999
2006-01-17 09:24:44 51°13.644 2°55.925 115.8 4.5 293 -999
2006-01-17 09:24:48 51°13.646 2°55.917 116.1 4.4 293 -999
2006-01-17 09:24:54 51°13.649 2°55.907 116.3 4.4 293 -999
2006-01-17 09:24:58 51°13.651 2°55.9 116.3 4.4 294 -999
2006-01-17 09:25:04 51°13.655 2°55.89 116.1 4.4 293 -999
2006-01-17 09:25:08 51°13.657 2°55.883 116 4.4 294 -999
2006-01-17 09:25:14 51°13.659 2°55.872 115.7 4.3 293 -999
2006-01-17 09:25:18 51°13.66 2°55.865 115.4 4.3 293 -999
2006-01-17 09:25:24 51°13.663 2°55.854 115.1 4.3 293 -999
2006-01-17 09:25:28 51°13.665 2°55.847 114.7 4.3 293 -999
2006-01-17 09:25:34 51°13.668 2°55.837 114.4 4.3 293 -999
2006-01-17 09:25:38 51°13.67 2°55.83 113.7 4.3 292 -999
2006-01-17 09:25:43 51°13.672 2°55.821 112.6 4.2 292 6.4
2006-01-17 09:25:48 51°13.674 2°55.813 111.1 4.3 290 -999
2006-01-17 09:25:54 51°13.676 2°55.802 109.4 4.4 289 -999
2006-01-17 09:25:58 51°13.678 2°55.794 107.6 4.2 287 -999
2006-01-17 09:26:04 51°13.68 2°55.784 106 4 286 -999
2006-01-17 09:26:08 51°13.68 2°55.778 104.7 3.8 285 -999
2006-01-17 09:26:14 51°13.682 2°55.769 103.5 3.7 284 -999
2006-01-17 09:26:18 51°13.683 2°55.763 102.2 3.5 284 10
2006-01-17 09:26:23 51°13.684 2°55.756 101.5 3 283 10.7
2006-01-17 09:26:28 51°13.684 2°55.751 100.1 2.5 281 10.8
2006-01-17 09:26:32 51°13.685 2°55.747 97.4 2.2 282 11.2
2006-01-17 09:26:38 51°13.685 2°55.743 94.9 1.7 279 11.8
2006-01-17 09:26:43 51°13.686 2°55.74 92.2 1.4 280 12.1
2006-01-17 09:26:47 51°13.686 2°55.739 89.3 1 282 12.5
2006-01-17 09:26:52 51°13.687 2°55.737 86.2 0.7 289 12.5
2006-01-17 09:26:58 51°13.687 2°55.737 82.7 0.4 321 12.6
2006-01-17 09:27:03 51°13.688 2°55.737 79 0.4 341 12.6
2006-01-17 09:27:08 51°13.689 2°55.739 74.4 0.8 40 12.5
2006-01-17 09:27:13 51°13.69 2°55.74 68.8 1 41 12.3
2006-01-17 09:27:17 51°13.692 2°55.742 63.8 1.5 41 12.3
2006-01-17 09:27:23 51°13.694 2°55.745 56 1.8 37 12.3
2006-01-17 09:27:28 51°13.696 2°55.748 49.3 2 33 12.4
2006-01-17 09:27:33 51°13.699 2°55.75 42.1 2.2 26 12.2
2006-01-17 09:27:37 51°13.702 2°55.751 35 2.5 20 12.6
2006-01-17 09:27:43 51°13.706 2°55.752 27.5 2.7 14 12.6
2006-01-17 09:27:48 51°13.71 2°55.753 19.9 2.9 5 12.8
2006-01-17 09:27:53 51°13.714 2°55.752 12.2 3.1 -999 12.6
2006-01-17 09:27:58 51°13.719 2°55.751 6 3.4 351 12.2
2006-01-17 09:28:03 51°13.724 2°55.748 356.5 3.5 346 11.8
2006-01-17 09:28:08 51°13.728 2°55.745 348.8 3.7 338 11.4
2006-01-17 09:28:13 51°13.733 2°55.741 341.2 3.8 333 9.6
2006-01-17 09:28:18 51°13.738 2°55.736 334.9 3.9 327 8.7
2006-01-17 09:28:23 51°13.742 2°55.73 330.6 4 324 8.4
2006-01-17 09:28:27 51°13.746 2°55.726 328 4.3 322 8.5
2006-01-17 09:28:32 51°13.751 2°55.72 326.3 4.5 321 8.2
2006-01-17 09:28:38 51°13.757 2°55.712 325.7 4.7 321 8.4
2006-01-17 09:28:43 51°13.763 2°55.705 325.6 4.9 321 8.4
2006-01-17 09:28:48 51°13.768 2°55.698 326.2 5.1 321 8.1
2006-01-17 09:28:52 51°13.773 2°55.692 327.3 5.3 322 8
2006-01-17 09:28:58 51°13.78 2°55.683 328.2 5.5 323 8.1
2006-01-17 09:29:03 51°13.787 2°55.676 329.5 5.7 325 8.3
2006-01-17 09:29:08 51°13.794 2°55.669 330.9 5.9 326 8.8
2006-01-17 09:29:12 51°13.799 2°55.663 332.6 6 328 8.9
2006-01-17 09:29:18 51°13.808 2°55.655 334 6.2 329 9.2
2006-01-17 09:29:23 51°13.816 2°55.648 335.3 6.3 331 9.3
2006-01-17 09:29:28 51°13.824 2°55.641 335.6 6.5 331 9.2
2006-01-17 09:29:33 51°13.832 2°55.635 335.6 6.6 332 9.2
2006-01-17 09:29:38 51°13.841 2°55.628 336 6.6 333 9.2
2006-01-17 09:29:43 51°13.849 2°55.621 337.1 6.7 333 9.1
2006-01-17 09:29:48 51°13.857 2°55.614 337.8 6.7 334 9.1
2006-01-17 09:29:53 51°13.865 2°55.608 338.9 6.7 334 8.8
2006-01-17 09:29:58 51°13.874 2°55.602 339.6 5.9 335 9
2006-01-17 09:30:03 51°13.882 2°55.596 340.2 6.7 335 9
2006-01-17 09:30:08 51°13.89 2°55.589 340.3 6.7 335 9.1
2006-01-17 09:30:13 51°13.898 2°55.583 340.2 6.6 335 9
2006-01-17 09:30:18 51°13.907 2°55.577 340.2 6.6 335 9
2006-01-17 09:30:23 51°13.915 2°55.571 340.4 6.6 335 9.1
2006-01-17 09:30:28 51°13.923 2°55.565 340.6 6.6 336 9.1
2006-01-17 09:30:33 51°13.932 2°55.558 340.9 6.6 336 9.1
2006-01-17 09:30:38 51°13.94 2°55.552 340.9 6.6 336 9.1
2006-01-17 09:30:43 51°13.948 2°55.546 340.9 6.6 335 9.1
2006-01-17 09:30:48 51°13.957 2°55.54 341.1 6.6 336 9
2006-01-17 09:30:53 51°13.965 2°55.534 341.2 6.6 336 8.8
2006-01-17 09:30:58 51°13.974 2°55.528 341.2 6.6 336 8.9
2006-01-17 09:31:03 51°13.982 2°55.522 341.5 6.6 337 9
2006-01-17 09:31:08 51°13.99 2°55.517 341.8 6.6 337 9
2006-01-17 09:31:13 51°13.999 2°55.511 341.8 6.6 337 9.1
2006-01-17 09:31:18 51°14.007 2°55.505 342.2 6.6 337 9.1
2006-01-17 09:31:23 51°14.016 2°55.499 342.4 6.7 337 9.1
2006-01-17 09:31:27 51°14.023 2°55.495 341.9 6.7 337 9.1
2006-01-17 09:31:33 51°14.033 2°55.487 341.3 6.7 336 9.2
2006-01-17 09:31:38 51°14.042 2°55.481 341.2 6.8 336 9.1
2006-01-17 09:31:43 51°14.05 2°55.475 341.3 6.9 336 9
2006-01-17 09:31:48 51°14.059 2°55.469 341.3 6.9 336 9
2006-01-17 09:31:53 51°14.068 2°55.462 341 7 335 9.1
2006-01-17 09:31:58 51°14.077 2°55.455 340.4 7 335 9.1
2006-01-17 09:32:03 51°14.086 2°55.449 340.4 7.1 335 9.2
2006-01-17 09:32:08 51°14.094 2°55.442 340.8 7.1 335 9.2
2006-01-17 09:32:13 51°14.103 2°55.435 340.8 7.1 335 9.2
2006-01-17 09:32:18 51°14.112 2°55.428 340 7.2 334 9.3
2006-01-17 09:32:23 51°14.122 2°55.421 339.4 7.4 333 9.3
2006-01-17 09:32:28 51°14.131 2°55.413 339.2 7.6 333 9.3
2006-01-17 09:32:33 51°14.141 2°55.405 338.3 7.9 332 9.3
2006-01-17 09:32:38 51°14.151 2°55.396 337 8.1 331 31.8
2006-01-17 09:32:43 51°14.161 2°55.386 335.5 8.3 329 50.9
2006-01-17 09:32:48 51°14.171 2°55.376 334 8.5 328 10
2006-01-17 09:32:53 51°14.181 2°55.365 333.2 8.8 327 34.9
2006-01-17 09:32:58 51°14.192 2°55.354 332.4 9 326 38.6
2006-01-17 09:33:03 51°14.202 2°55.342 331 9.1 325 -999
2006-01-17 09:33:08 51°14.212 2°55.33 329.5 9.3 323 -999
2006-01-17 09:33:13 51°14.223 2°55.317 328.5 9.5 322 43.2
2006-01-17 09:33:18 51°14.233 2°55.303 327.3 9.6 321 51.1
2006-01-17 09:33:23 51°14.243 2°55.289 325.1 9.7 318 30.8
2006-01-17 09:33:28 51°14.253 2°55.274 323.7 9.7 317 10.2
2006-01-17 09:33:33 51°14.262 2°55.259 322 9.8 315 43.4
2006-01-17 09:33:38 51°14.272 2°55.243 320.3 9.8 313 9.4
2006-01-17 09:33:43 51°14.281 2°55.227 318.2 9.9 312 9.2
2006-01-17 09:33:48 51°14.29 2°55.21 317.1 9.9 311 9.9
2006-01-17 09:33:52 51°14.297 2°55.197 317.3 10 312 9.4
2006-01-17 09:33:58 51°14.309 2°55.177 317.9 10.1 313 9.5
2006-01-17 09:34:03 51°14.318 2°55.16 317 10.3 310 9.5
2006-01-17 09:34:07 51°14.326 2°55.146 316.4 10.4 311 9.4
2006-01-17 09:34:13 51°14.338 2°55.125 316.4 10.5 311 9.4
2006-01-17 09:34:18 51°14.348 2°55.108 316.7 10.6 312 9.3
2006-01-17 09:34:23 51°14.358 2°55.09 317.2 10.7 312 9.4
2006-01-17 09:34:27 51°14.366 2°55.076 318.5 10.8 314 9.4
2006-01-17 09:34:33 51°14.378 2°55.055 319.7 10.9 314 9.6
2006-01-17 09:34:38 51°14.389 2°55.038 319.9 11 313 9.5
2006-01-17 09:34:42 51°14.397 2°55.023 320.4 11 314 9.4
2006-01-17 09:34:48 51°14.41 2°55.002 321.4 11.1 314 9.4
2006-01-17 09:34:53 51°14.422 2°54.986 323.7 11.1 317 9.3
2006-01-17 09:34:58 51°14.434 2°54.971 326.6 11.1 321 9.3
2006-01-17 09:35:03 51°14.447 2°54.958 330.9 11.1 326 9.4
2006-01-17 09:35:07 51°14.457 2°54.948 336 11.1 328 9.2
2006-01-17 09:35:13 51°14.473 2°54.934 338.8 11.1 330 9.1
2006-01-17 09:35:18 51°14.487 2°54.921 339.9 11.1 331 8.9
2006-01-17 09:35:23 51°14.501 2°54.91 340.2 11.1 331 8.8
2006-01-17 09:35:28 51°14.514 2°54.899 341.2 11.1 333 8.8
2006-01-17 09:35:33 51°14.528 2°54.888 343.4 11.1 335 8.7
2006-01-17 09:35:38 51°14.542 2°54.879 346.1 11 337 8.5
2006-01-17 09:35:43 51°14.557 2°54.87 347.9 11.2 338 8.6
2006-01-17 09:35:48 51°14.572 2°54.862 348.5 11.4 339 8.6
2006-01-17 09:35:52 51°14.584 2°54.856 350.6 11.4 342 8.5
2006-01-17 09:35:58 51°14.603 2°54.848 352.9 11.4 344 8.6
2006-01-17 09:36:03 51°14.618 2°54.841 355.1 11.5 345 8.5
2006-01-17 09:36:08 51°14.634 2°54.837 356.5 11.7 347 8.4
2006-01-17 09:36:13 51°14.65 2°54.831 357.4 11.7 348 8.5
2006-01-17 09:36:18 51°14.666 2°54.827 359.8 11.7 351 8.4
2006-01-17 09:36:23 51°14.683 2°54.824 1.4 11.9 352 8.4
2006-01-17 09:36:28 51°14.699 2°54.82 2.1 11.9 352 8.4
2006-01-17 09:36:33 51°14.715 2°54.816 2.4 11.9 352 8.3
2006-01-17 09:36:38 51°14.732 2°54.812 2.3 12 352 8.4
2006-01-17 09:36:43 51°14.748 2°54.808 1.9 12 351 8.3
2006-01-17 09:36:48 51°14.764 2°54.804 1.3 12 351 8.3
2006-01-17 09:36:53 51°14.781 2°54.798 0.6 12.1 349 8.3
2006-01-17 09:36:58 51°14.797 2°54.792 359.7 12.1 348 8.3
2006-01-17 09:37:03 51°14.814 2°54.786 357.7 12.1 346 8.2
2006-01-17 09:37:08 51°14.83 2°54.78 355.9 12.1 345 8.2
2006-01-17 09:37:13 51°14.846 2°54.772 355.4 12.2 345 8.2
2006-01-17 09:37:18 51°14.862 2°54.765 354.7 12.2 345 8.2
2006-01-17 09:37:22 51°14.875 2°54.759 354.9 12.2 344 8
2006-01-17 09:37:27 51°14.892 2°54.752 355.2 12.2 346 7.9
2006-01-17 09:37:32 51°14.909 2°54.746 355.2 12.2 346 7.9
2006-01-17 09:37:38 51°14.928 2°54.738 355.3 12.2 346 7.9
2006-01-17 09:37:42 51°14.941 2°54.732 355.3 12.1 345 7.7
2006-01-17 09:37:47 51°14.958 2°54.726 355.3 12.1 345 8
2006-01-17 09:37:53 51°14.977 2°54.717 354.8 12.1 345 8.1
2006-01-17 09:37:58 51°14.993 2°54.71 354.5 12.2 344 8.1
2006-01-17 09:38:03 51°15.01 2°54.702 354.1 12.1 345 7.7
2006-01-17 09:38:08 51°15.026 2°54.695 353.6 12.1 344 7.6
2006-01-17 09:38:12 51°15.039 2°54.69 353.6 12.1 345 5.6
2006-01-17 09:38:18 51°15.058 2°54.682 354.3 12 345 5.5
2006-01-17 09:38:23 51°15.074 2°54.676 355.1 11.9 346 5.4
2006-01-17 09:38:28 51°15.09 2°54.67 355.9 11.9 347 7.3
2006-01-17 09:38:32 51°15.103 2°54.666 357.2 11.9 349 7.3
2006-01-17 09:38:37 51°15.12 2°54.662 358.7 11.8 350 7.3
2006-01-17 09:38:43 51°15.139 2°54.657 359.5 11.8 351 7.3
2006-01-17 09:38:48 51°15.155 2°54.653 0.7 11.8 351 7.2
2006-01-17 09:38:53 51°15.171 2°54.649 1.4 11.9 352 7.5
2006-01-17 09:38:58 51°15.187 2°54.645 1.4 11.9 352 7.4
2006-01-17 09:39:03 51°15.204 2°54.641 1.7 11.9 351 5.6
2006-01-17 09:39:07 51°15.218 2°54.638 1.6 11.9 351 7.4
2006-01-17 09:39:12 51°15.234 2°54.634 1.3 11.9 351 7.4
2006-01-17 09:39:18 51°15.253 2°54.628 1.2 11.9 350 7.4
2006-01-17 09:39:23 51°15.27 2°54.623 0.8 12 348 7.4
2006-01-17 09:39:27 51°15.283 2°54.618 358.9 12 347 7.4
2006-01-17 09:39:32 51°15.299 2°54.611 357.2 12.1 345 7.6
2006-01-17 09:39:37 51°15.315 2°54.603 355.6 12.2 344 7.7
2006-01-17 09:39:42 51°15.331 2°54.595 354.2 12.2 343 7.7
2006-01-17 09:39:48 51°15.35 2°54.585 353.8 12.2 343 7.8
2006-01-17 09:39:52 51°15.363 2°54.579 353.4 12.2 343 7.9
2006-01-17 09:39:57 51°15.38 2°54.572 353.6 12.2 344 8
2006-01-17 09:40:02 51°15.396 2°54.564 354.4 12.3 344 8.1
2006-01-17 09:40:07 51°15.413 2°54.558 355 12.3 346 8
2006-01-17 09:40:12 51°15.429 2°54.551 355.6 12.3 345 8.3
2006-01-17 09:40:17 51°15.446 2°54.545 356.5 12.3 347 8.2
2006-01-17 09:40:23 51°15.466 2°54.538 357.3 12.2 347 8.3
2006-01-17 09:40:27 51°15.479 2°54.534 358.8 12.2 349 8.2
2006-01-17 09:40:32 51°15.496 2°54.528 359.9 12.2 348 8.3
2006-01-17 09:40:36 51°15.509 2°54.524 359.9 12.2 349 8.5
2006-01-17 09:40:43 51°15.532 2°54.517 0.5 12.3 349 8.5
2006-01-17 09:40:48 51°15.549 2°54.512 0.7 12.3 349 8.5
2006-01-17 09:40:52 51°15.562 2°54.508 0.8 12.3 349 8.6
2006-01-17 09:40:56 51°15.576 2°54.503 0.7 12.2 349 8.7
2006-01-17 09:41:03 51°15.599 2°54.496 0.9 12.2 348 8.7
2006-01-17 09:41:07 51°15.612 2°54.492 0.3 12.3 349 8.7
2006-01-17 09:41:12 51°15.629 2°54.486 -999 12.3 348 8.8
2006-01-17 09:41:16 51°15.642 2°54.481 359.7 12.2 347 8.8
2006-01-17 09:41:22 51°15.662 2°54.473 359.1 12.2 347 8.9
2006-01-17 09:41:27 51°15.678 2°54.466 358.1 12.2 345 9
2006-01-17 09:41:32 51°15.695 2°54.46 357.4 12.2 345 9.1
2006-01-17 09:41:37 51°15.711 2°54.453 357.1 12.2 346 9.1
2006-01-17 09:41:43 51°15.731 2°54.445 357.7 12.3 346 9.2
2006-01-17 09:41:47 51°15.744 2°54.44 358.1 12.2 347 9.4
2006-01-17 09:41:52 51°15.76 2°54.434 358.8 12.1 346 9.4
2006-01-17 09:41:57 51°15.777 2°54.429 359.4 12.2 348 9.4
2006-01-17 09:42:02 51°15.793 2°54.422 359.5 12.2 347 9.4
2006-01-17 09:42:07 51°15.81 2°54.417 359.3 12.2 348 9.4
2006-01-17 09:42:13 51°15.827 2°54.411 359.8 12.2 347 9.6
2006-01-17 09:42:18 51°15.843 2°54.405 359.3 12.1 348 9.6
2006-01-17 09:42:23 51°15.861 2°54.399 359 12.1 347 9.7
2006-01-17 09:42:30 51°15.884 2°54.39 359 12.1 348 9.7
2006-01-17 09:42:34 51°15.898 2°54.385 358.8 12.1 348 9.8
2006-01-17 09:42:38 51°15.909 2°54.381 359.2 12.2 347 9.8
2006-01-17 09:42:42 51°15.922 2°54.376 358.9 12 348 9.8
2006-01-17 09:42:48 51°15.942 2°54.37 359.4 12 348 9.9
2006-01-17 09:42:53 51°15.958 2°54.364 359.6 12.1 348 10.1
2006-01-17 09:42:58 51°15.975 2°54.358 359.2 12.1 348 10.1
2006-01-17 09:43:03 51°15.991 2°54.353 359.2 12.1 348 10
2006-01-17 09:43:08 51°16.008 2°54.347 359.3 12.1 348 10.2
2006-01-17 09:43:13 51°16.025 2°54.341 359.3 12.1 348 10.2
2006-01-17 09:43:18 51°16.041 2°54.336 359.3 12.2 349 10.3
2006-01-17 09:43:23 51°16.057 2°54.331 359.8 12.1 349 10.2
2006-01-17 09:43:28 51°16.074 2°54.325 -999 12.1 349 10.4
2006-01-17 09:43:33 51°16.09 2°54.32 -999 11.9 348 10.3
2006-01-17 09:43:38 51°16.105 2°54.315 359.9 11.2 348 10.3
2006-01-17 09:43:42 51°16.117 2°54.312 359.5 10.6 349 10.4
2006-01-17 09:43:48 51°16.132 2°54.307 359.7 9.7 350 10.4
2006-01-17 09:43:53 51°16.144 2°54.307 3.8 8.7 358 10.4
2006-01-17 09:43:58 51°16.154 2°54.309 10.5 7.8 3 10.5
2006-01-17 09:44:03 51°16.163 2°54.312 16.6 6.9 11 10.6
2006-01-17 09:44:08 51°16.171 2°54.316 24.6 6.2 16 10.6
2006-01-17 09:44:13 51°16.178 2°54.321 29.8 5.5 23 10.8
2006-01-17 09:44:18 51°16.184 2°54.326 34.4 5 27 10.7
2006-01-17 09:44:23 51°16.189 2°54.331 39.2 4.6 31 10.7
2006-01-17 09:44:28 51°16.194 2°54.336 43.1 4.1 36 10.8
2006-01-17 09:44:33 51°16.197 2°54.342 47.1 3.8 41 10.7
2006-01-17 09:44:38 51°16.201 2°54.346 49.9 3.3 41 10.7
2006-01-17 09:44:43 51°16.204 2°54.35 50.8 3 43 10.8
2006-01-17 09:44:48 51°16.206 2°54.353 50.2 2.4 36 10.8
2006-01-17 09:44:53 51°16.208 2°54.356 47.2 1.9 33 10.7
2006-01-17 09:44:58 51°16.21 2°54.357 41.9 1.5 20 10.7
2006-01-17 09:45:03 51°16.212 2°54.358 39.2 1.2 31 10.8
2006-01-17 09:45:08 51°16.212 2°54.358 38 0.8 18 10.8
2006-01-17 09:45:13 51°16.213 2°54.358 38.2 0.6 3 10.8
2006-01-17 09:45:18 51°16.214 2°54.359 38.2 0.5 17 10.8
2006-01-17 09:45:22 51°16.215 2°54.359 38.4 0.5 15 10.8
2006-01-17 09:45:28 51°16.215 2°54.359 38.5 0.5 6 10.7
2006-01-17 09:45:33 51°16.216 2°54.359 38 0.6 3 10.7
2006-01-17 09:45:38 51°16.217 2°54.359 37.6 0.5 8 10.7
2006-01-17 09:45:42 51°16.218 2°54.359 37 0.5 10 10.7
2006-01-17 09:45:48 51°16.218 2°54.359 36.2 0.5 9 10.7
2006-01-17 09:45:53 51°16.219 2°54.359 35.8 0.5 357 10.7
2006-01-17 09:45:58 51°16.22 2°54.359 35 0.6 349 10.8
2006-01-17 09:46:02 51°16.22 2°54.359 34 0.5 -999 10.8
2006-01-17 09:46:08 51°16.221 2°54.359 32.7 0.5 357 10.8
2006-01-17 09:46:13 51°16.222 2°54.359 32 0.6 348 10.7
2006-01-17 09:46:18 51°16.222 2°54.359 31.9 0.5 353 10.7
2006-01-17 09:46:23 51°16.223 2°54.359 31.4 0.4 351 10.6
2006-01-17 09:46:28 51°16.223 2°54.358 31 0.4 346 10.6
2006-01-17 09:46:33 51°16.224 2°54.358 30.5 0.4 339 10.7
2006-01-17 09:46:38 51°16.224 2°54.358 29.9 0.4 343 10.8
2006-01-17 09:46:42 51°16.225 2°54.357 29.1 0.4 335 10.9
2006-01-17 09:46:48 51°16.225 2°54.357 28.3 0.4 339 10.8
2006-01-17 09:46:53 51°16.226 2°54.357 27.5 0.4 329 10.8
2006-01-17 09:46:58 51°16.226 2°54.356 26.8 0.3 334 10.8
2006-01-17 09:47:03 51°16.226 2°54.356 26.1 0.4 331 10.8
2006-01-17 09:47:08 51°16.227 2°54.355 25.4 0.5 317 10.8
2006-01-17 09:47:13 51°16.227 2°54.354 24.6 0.4 322 10.8
2006-01-17 09:47:18 51°16.227 2°54.354 24 0.4 315 10.7
2006-01-17 09:47:24 51°16.228 2°54.353 23.7 0.5 308 10.7
2006-01-17 09:47:28 51°16.228 2°54.352 23.2 0.4 314 10.7
2006-01-17 09:47:33 51°16.228 2°54.352 22.4 0.4 314 10.7
2006-01-17 09:47:38 51°16.229 2°54.351 21.5 0.6 301 10.7
2006-01-17 09:47:43 51°16.229 2°54.35 20.5 0.3 315 10.8
2006-01-17 09:47:48 51°16.23 2°54.349 19.7 0.3 311 10.9
2006-01-17 09:47:53 51°16.23 2°54.348 18.8 0.6 296 10.8
2006-01-17 09:47:58 51°16.23 2°54.347 18.1 0.5 301 10.8
2006-01-17 09:48:03 51°16.23 2°54.347 17 0.4 300 10.8
2006-01-17 09:48:08 51°16.231 2°54.346 16.4 0.5 296 10.7
2006-01-17 09:48:13 51°16.231 2°54.345 15.6 0.5 296 10.7
2006-01-17 09:48:18 51°16.231 2°54.343 14.8 0.6 293 10.7
2006-01-17 09:48:22 51°16.231 2°54.342 13.7 0.4 290 10.8
2006-01-17 09:48:28 51°16.232 2°54.341 13.1 0.5 290 10.7
2006-01-17 09:48:33 51°16.232 2°54.34 11.9 0.6 286 10.8
2006-01-17 09:48:38 51°16.232 2°54.339 11 0.4 289 10.8
2006-01-17 09:48:43 51°16.232 2°54.338 10.2 0.5 289 10.8
2006-01-17 09:48:48 51°16.232 2°54.336 9.3 0.6 283 10.7
2006-01-17 09:48:53 51°16.232 2°54.335 8.3 0.5 280 10.8
2006-01-17 09:48:58 51°16.232 2°54.334 7.2 0.5 282 10.8
2006-01-17 09:49:03 51°16.232 2°54.333 6.2 0.6 278 10.7
2006-01-17 09:49:08 51°16.233 2°54.332 5.1 0.6 275 10.7
2006-01-17 09:49:13 51°16.233 2°54.33 4.3 0.7 274 10.7
2006-01-17 09:49:18 51°16.233 2°54.329 3.5 0.4 278 10.8
2006-01-17 09:49:23 51°16.233 2°54.328 2.7 0.6 266 10.7
2006-01-17 09:49:28 51°16.233 2°54.327 1.5 0.7 270 10.7
2006-01-17 09:49:33 51°16.233 2°54.325 0.6 0.6 271 10.8
2006-01-17 09:49:38 51°16.233 2°54.324 359.4 0.6 271 10.7
2006-01-17 09:49:44 51°16.233 2°54.323 358.3 0.6 266 10.7
2006-01-17 09:49:48 51°16.232 2°54.321 357.4 0.6 265 10.7
2006-01-17 09:49:53 51°16.232 2°54.32 356.6 0.7 262 10.7
2006-01-17 09:49:58 51°16.232 2°54.318 355.8 0.5 263 10.7
2006-01-17 09:50:03 51°16.232 2°54.317 355.2 0.7 260 10.8
2006-01-17 09:50:08 51°16.232 2°54.315 354.1 0.7 264 10.7
2006-01-17 09:50:13 51°16.232 2°54.314 353.5 0.6 263 10.7
2006-01-17 09:50:18 51°16.232 2°54.313 352.7 0.6 264 10.7
2006-01-17 09:50:23 51°16.232 2°54.312 351.5 0.6 262 10.8
2006-01-17 09:50:28 51°16.231 2°54.31 350.4 0.7 259 10.8
2006-01-17 09:50:33 51°16.231 2°54.308 349.3 0.6 258 10.8
2006-01-17 09:50:38 51°16.231 2°54.307 348.4 0.7 253 10.8
2006-01-17 09:50:43 51°16.23 2°54.305 347.5 0.8 253 10.8
2006-01-17 09:50:48 51°16.23 2°54.304 346.6 0.7 248 10.8
2006-01-17 09:50:53 51°16.23 2°54.302 345.6 0.9 250 10.8
2006-01-17 09:50:58 51°16.23 2°54.3 344.5 0.8 250 10.8
2006-01-17 09:51:03 51°16.229 2°54.299 343.8 0.7 248 10.8
2006-01-17 09:51:08 51°16.229 2°54.297 343 0.7 250 10.8
2006-01-17 09:51:13 51°16.228 2°54.296 341.9 0.8 250 10.7
2006-01-17 09:51:18 51°16.228 2°54.294 340.8 0.8 248 10.7
2006-01-17 09:51:23 51°16.228 2°54.292 340.2 0.7 249 10.8
2006-01-17 09:51:28 51°16.227 2°54.291 339.4 0.8 251 10.8
2006-01-17 09:51:33 51°16.227 2°54.29 338.4 0.6 250 10.6
2006-01-17 09:51:38 51°16.227 2°54.288 338.1 0.8 242 10.7
2006-01-17 09:51:42 51°16.226 2°54.287 337.7 0.6 245 10.8
2006-01-17 09:51:48 51°16.226 2°54.286 336.8 0.7 241 10.7
2006-01-17 09:51:53 51°16.225 2°54.285 336.6 0.6 237 10.7
2006-01-17 09:51:58 51°16.225 2°54.283 336.4 0.8 237 10.8
2006-01-17 09:52:03 51°16.224 2°54.282 336.1 0.6 239 10.9
2006-01-17 09:52:08 51°16.224 2°54.28 335.4 0.8 239 10.9
2006-01-17 09:52:13 51°16.223 2°54.279 334.8 0.7 237 10.8
2006-01-17 09:52:18 51°16.223 2°54.277 334 0.7 236 10.8
2006-01-17 09:52:22 51°16.222 2°54.276 333.5 0.7 237 10.7
2006-01-17 09:52:28 51°16.221 2°54.275 333.1 0.8 235 10.7
2006-01-17 09:52:33 51°16.221 2°54.273 333 0.7 233 10.8
2006-01-17 09:52:38 51°16.22 2°54.272 332.6 0.8 234 10.8
2006-01-17 09:52:43 51°16.22 2°54.27 332.4 0.8 234 10.8
2006-01-17 09:52:48 51°16.219 2°54.269 332.2 0.7 235 10.9
2006-01-17 09:52:53 51°16.219 2°54.268 331.7 0.8 237 10.8
2006-01-17 09:52:58 51°16.218 2°54.267 331.5 0.7 234 10.7
2006-01-17 09:53:03 51°16.218 2°54.265 331.2 0.8 231 10.8
2006-01-17 09:53:08 51°16.217 2°54.264 330.9 0.7 233 10.8
2006-01-17 09:53:13 51°16.216 2°54.263 330.9 0.7 231 10.8
2006-01-17 09:53:18 51°16.215 2°54.262 330.7 0.8 229 10.8
2006-01-17 09:53:23 51°16.215 2°54.261 330.5 0.8 230 10.8
2006-01-17 09:53:28 51°16.214 2°54.26 330.5 0.6 229 10.8
2006-01-17 09:53:33 51°16.214 2°54.258 330.3 0.8 229 10.8
2006-01-17 09:53:38 51°16.213 2°54.257 330.1 0.7 226 10.7
2006-01-17 09:53:43 51°16.212 2°54.256 330.2 0.7 225 10.6
2006-01-17 09:53:48 51°16.212 2°54.255 330.2 0.7 226 10.7
2006-01-17 09:53:53 51°16.211 2°54.254 330.2 0.7 227 10.6
2006-01-17 09:53:58 51°16.21 2°54.253 330.5 0.6 225 10.7
2006-01-17 09:54:03 51°16.21 2°54.252 331 0.7 224 10.7
2006-01-17 09:54:08 51°16.209 2°54.251 331.3 0.6 228 10.7
2006-01-17 09:54:13 51°16.209 2°54.25 331.6 0.7 227 10.8
2006-01-17 09:54:18 51°16.208 2°54.249 331.7 0.6 224 10.8
2006-01-17 09:54:23 51°16.208 2°54.248 331.8 0.7 225 10.9
2006-01-17 09:54:28 51°16.207 2°54.246 331.7 0.7 224 10.8
2006-01-17 09:54:33 51°16.207 2°54.245 331.8 0.6 221 10.8
2006-01-17 09:54:38 51°16.206 2°54.243 331.8 0.7 224 10.8
2006-01-17 09:54:43 51°16.206 2°54.242 332.1 0.7 225 10.8
2006-01-17 09:54:48 51°16.205 2°54.24 332.4 0.6 224 10.8
2006-01-17 09:54:53 51°16.204 2°54.239 332.1 0.8 225 10.8
2006-01-17 09:54:58 51°16.204 2°54.239 332.1 0.6 223 10.8
2006-01-17 09:55:02 51°16.203 2°54.238 332.3 0.7 224 10.8
2006-01-17 09:55:08 51°16.202 2°54.236 331.8 0.7 223 10.8
2006-01-17 09:55:13 51°16.201 2°54.235 332.1 0.7 221 10.7
2006-01-17 09:55:18 51°16.201 2°54.234 332 0.7 223 10.7
2006-01-17 09:55:23 51°16.2 2°54.233 332 0.6 224 10.8
2006-01-17 09:55:28 51°16.2 2°54.232 332.2 0.6 225 10.9
2006-01-17 09:55:33 51°16.199 2°54.231 332 0.7 225 10.8
2006-01-17 09:55:38 51°16.198 2°54.23 331.6 0.8 223 10.7
2006-01-17 09:55:43 51°16.197 2°54.229 332 0.7 222 10.8
2006-01-17 09:55:48 51°16.197 2°54.228 332 0.8 225 10.8
2006-01-17 09:55:53 51°16.196 2°54.227 332.1 0.7 222 10.8
2006-01-17 09:55:58 51°16.195 2°54.226 332.3 0.7 226 10.8
2006-01-17 09:56:01 51°16.195 2°54.225 332.4 0.7 221 10.7
2006-01-17 09:56:08 51°16.194 2°54.225 332.6 0.6 220 10.8
2006-01-17 09:56:13 51°16.193 2°54.224 332.7 0.7 220 10.8
2006-01-17 09:56:18 51°16.192 2°54.223 332.8 0.7 219 10.8
2006-01-17 09:56:23 51°16.191 2°54.222 333.2 0.7 221 10.8
2006-01-17 09:56:28 51°16.191 2°54.222 333.1 0.6 224 10.8
2006-01-17 09:56:33 51°16.19 2°54.221 333.1 0.6 221 10.8
2006-01-17 09:56:38 51°16.189 2°54.22 333.2 0.7 225 10.8
2006-01-17 09:56:43 51°16.188 2°54.219 333.4 0.6 221 10.8
2006-01-17 09:56:48 51°16.188 2°54.218 333.8 0.6 221 10.8
2006-01-17 09:56:53 51°16.187 2°54.217 333.8 0.7 222 10.8
2006-01-17 09:56:58 51°16.187 2°54.216 334 0.6 216 10.7
2006-01-17 09:57:03 51°16.187 2°54.215 334.4 0.6 225 10.9
2006-01-17 09:57:08 51°16.186 2°54.215 334.4 0.6 216 10.9
2006-01-17 09:57:13 51°16.185 2°54.214 334.5 0.7 220 10.8
2006-01-17 09:57:18 51°16.185 2°54.213 335 0.5 215 10.8
2006-01-17 09:57:22 51°16.184 2°54.212 335.4 0.7 219 10.7
2006-01-17 09:57:28 51°16.183 2°54.211 335.9 0.6 216 10.8
2006-01-17 09:57:33 51°16.182 2°54.21 336.2 0.7 217 10.8
2006-01-17 09:57:38 51°16.181 2°54.21 336.7 0.6 216 10.8
2006-01-17 09:57:42 51°16.181 2°54.209 336.8 0.7 215 10.9
2006-01-17 09:57:48 51°16.18 2°54.208 336.9 0.7 217 10.8
2006-01-17 09:57:53 51°16.179 2°54.207 337.3 0.7 215 10.8
2006-01-17 09:57:58 51°16.178 2°54.206 337.8 0.8 214 10.8
2006-01-17 09:58:03 51°16.178 2°54.206 338.1 0.6 211 10.9
2006-01-17 09:58:08 51°16.177 2°54.205 338.5 0.7 215 10.8
2006-01-17 09:58:13 51°16.176 2°54.204 338.8 0.7 217 10.8
2006-01-17 09:58:18 51°16.175 2°54.203 339.1 0.7 219 10.8
2006-01-17 09:58:22 51°16.174 2°54.202 339.8 0.6 211 10.7
2006-01-17 09:58:28 51°16.174 2°54.201 340.3 0.7 210 10.8
2006-01-17 09:58:33 51°16.173 2°54.2 340.3 0.7 215 10.8
2006-01-17 09:58:38 51°16.172 2°54.2 340.9 0.7 213 10.8
2006-01-17 09:58:43 51°16.171 2°54.199 341.4 0.7 218 10.8
2006-01-17 09:58:48 51°16.17 2°54.198 341.7 0.7 216 10.9
2006-01-17 09:58:53 51°16.169 2°54.197 342.1 0.7 213 10.9
2006-01-17 09:58:58 51°16.169 2°54.196 342.5 0.7 217 10.8
2006-01-17 09:59:02 51°16.168 2°54.196 342.7 0.6 211 10.8
2006-01-17 09:59:08 51°16.167 2°54.195 343.2 0.7 216 10.8
2006-01-17 09:59:13 51°16.166 2°54.194 343.6 0.7 216 10.8
2006-01-17 09:59:18 51°16.165 2°54.193 343.9 0.7 212 10.8
2006-01-17 09:59:23 51°16.165 2°54.192 344.1 0.7 213 10.8
2006-01-17 09:59:28 51°16.164 2°54.191 344.4 0.7 214 10.8
2006-01-17 09:59:33 51°16.163 2°54.19 344.8 0.7 214 10.8
2006-01-17 09:59:38 51°16.162 2°54.189 345.2 0.6 212 10.9
2006-01-17 09:59:43 51°16.161 2°54.189 345.4 0.7 216 10.9
2006-01-17 09:59:48 51°16.161 2°54.188 345.4 0.7 218 10.9
2006-01-17 09:59:53 51°16.16 2°54.187 345.7 0.7 214 10.8
2006-01-17 09:59:58 51°16.159 2°54.186 346.1 0.8 219 10.8
2006-01-17 10:00:03 51°16.158 2°54.185 346.3 0.7 211 10.8
2006-01-17 10:00:08 51°16.157 2°54.185 346.5 0.8 218 10.8
2006-01-17 10:00:13 51°16.156 2°54.184 346.8 0.7 211 10.8
2006-01-17 10:00:18 51°16.156 2°54.183 347 0.7 209 10.8
2006-01-17 10:00:23 51°16.155 2°54.182 347.2 0.6 212 10.8
2006-01-17 10:00:28 51°16.154 2°54.181 347.2 0.7 215 10.8
2006-01-17 10:00:33 51°16.153 2°54.18 347.6 0.7 212 10.8
2006-01-17 10:00:38 51°16.153 2°54.18 347.6 0.7 211 10.7
2006-01-17 10:00:42 51°16.152 2°54.179 347.6 0.7 210 10.8
2006-01-17 10:00:48 51°16.151 2°54.178 348.1 0.7 213 10.8
2006-01-17 10:00:53 51°16.15 2°54.177 348.3 0.7 214 10.8
2006-01-17 10:00:58 51°16.15 2°54.176 348.5 0.7 213 10.9
2006-01-17 10:01:03 51°16.149 2°54.175 348.8 0.7 215 10.8
2006-01-17 10:01:08 51°16.148 2°54.174 348.9 0.6 208 10.9
2006-01-17 10:01:13 51°16.147 2°54.174 349 0.7 216 10.9
2006-01-17 10:01:18 51°16.146 2°54.173 348.9 0.7 216 10.8
2006-01-17 10:01:23 51°16.146 2°54.172 349 0.7 215 10.9
2006-01-17 10:01:28 51°16.145 2°54.171 349.1 0.8 215 10.8
2006-01-17 10:01:33 51°16.144 2°54.17 349.2 0.7 215 10.9
2006-01-17 10:01:38 51°16.143 2°54.169 349.2 0.7 215 10.8
2006-01-17 10:01:43 51°16.142 2°54.168 349 0.7 216 10.8
2006-01-17 10:01:48 51°16.142 2°54.167 348.7 0.7 221 10.8
2006-01-17 10:01:53 51°16.141 2°54.167 348.7 0.6 215 10.8
2006-01-17 10:01:58 51°16.14 2°54.165 348.8 0.7 216 10.8
2006-01-17 10:02:02 51°16.14 2°54.165 348.5 0.7 221 10.8
2006-01-17 10:02:08 51°16.139 2°54.163 348.3 0.7 224 10.8
2006-01-17 10:02:13 51°16.138 2°54.163 348.1 0.6 218 10.8
2006-01-17 10:02:18 51°16.137 2°54.162 347.8 0.7 218 10.8
2006-01-17 10:02:22 51°16.137 2°54.161 347.5 0.7 219 10.7
2006-01-17 10:02:28 51°16.136 2°54.16 347.5 0.6 216 10.8
2006-01-17 10:02:33 51°16.135 2°54.159 347.2 0.7 218 10.9
2006-01-17 10:02:38 51°16.134 2°54.158 346.8 0.6 223 10.9
2006-01-17 10:02:42 51°16.134 2°54.158 346.8 0.5 215 10.8
2006-01-17 10:02:48 51°16.133 2°54.157 346.9 0.6 217 10.9
2006-01-17 10:02:53 51°16.133 2°54.156 346.3 0.7 227 10.8
2006-01-17 10:02:58 51°16.132 2°54.155 345.8 0.5 216 10.8
2006-01-17 10:03:03 51°16.131 2°54.154 346 0.7 225 10.8
2006-01-17 10:03:08 51°16.13 2°54.153 345.3 0.8 224 10.7
2006-01-17 10:03:13 51°16.13 2°54.152 345.4 0.5 216 10.8
2006-01-17 10:03:18 51°16.129 2°54.151 345.1 0.6 224 11
2006-01-17 10:03:23 51°16.129 2°54.151 344.5 0.6 224 10.8
2006-01-17 10:03:28 51°16.128 2°54.149 343.8 0.6 224 10.8
2006-01-17 10:03:33 51°16.127 2°54.149 343.7 0.5 216 10.8
2006-01-17 10:03:38 51°16.127 2°54.148 343.3 0.6 220 10.8
2006-01-17 10:03:43 51°16.126 2°54.147 342.9 0.7 222 10.8
2006-01-17 10:03:48 51°16.126 2°54.146 342.6 0.6 225 10.9
2006-01-17 10:03:53 51°16.125 2°54.145 342.2 0.6 224 10.8
2006-01-17 10:03:58 51°16.125 2°54.144 341.8 0.6 225 10.8
2006-01-17 10:04:02 51°16.124 2°54.144 341.7 0.6 225 10.9
2006-01-17 10:04:08 51°16.123 2°54.142 341.4 0.6 229 10.9
2006-01-17 10:04:13 51°16.123 2°54.142 341.1 0.6 225 10.8
2006-01-17 10:04:18 51°16.122 2°54.14 340.9 0.6 225 10.9
2006-01-17 10:04:22 51°16.122 2°54.14 340.7 0.6 223 10.8
2006-01-17 10:04:28 51°16.121 2°54.139 340.4 0.6 225 10.8
2006-01-17 10:04:33 51°16.121 2°54.138 340.1 0.6 222 10.9
2006-01-17 10:04:38 51°16.12 2°54.137 339.8 0.6 224 10.9
2006-01-17 10:04:43 51°16.119 2°54.136 339.2 0.6 226 10.9
2006-01-17 10:04:48 51°16.119 2°54.135 338.9 0.5 228 11
2006-01-17 10:04:53 51°16.118 2°54.134 338.2 0.7 226 10.9
2006-01-17 10:04:58 51°16.118 2°54.133 337.6 0.6 225 10.9
2006-01-17 10:05:02 51°16.117 2°54.132 337.4 0.6 222 10.8
2006-01-17 10:05:08 51°16.116 2°54.131 337.1 0.7 224 10.9
2006-01-17 10:05:13 51°16.116 2°54.13 336.7 0.6 225 10.8
2006-01-17 10:05:18 51°16.115 2°54.129 336.7 0.6 224 10.9
2006-01-17 10:05:22 51°16.114 2°54.128 336.4 0.7 228 10.9
2006-01-17 10:05:28 51°16.114 2°54.127 336.2 0.6 221 10.9
2006-01-17 10:05:33 51°16.113 2°54.126 336.2 0.6 221 10.9
2006-01-17 10:05:38 51°16.113 2°54.125 336 0.6 223 10.9
2006-01-17 10:05:42 51°16.112 2°54.125 335.7 0.6 226 10.8
2006-01-17 10:05:48 51°16.111 2°54.124 335.8 0.6 224 10.9
2006-01-17 10:05:53 51°16.111 2°54.123 335.6 0.6 227 10.8
2006-01-17 10:05:58 51°16.11 2°54.122 335.3 0.6 226 10.9
2006-01-17 10:06:02 51°16.11 2°54.121 335.2 0.6 228 10.9
2006-01-17 10:06:08 51°16.109 2°54.12 334.9 0.6 222 10.8
2006-01-17 10:06:13 51°16.109 2°54.119 334.8 0.6 222 10.8
2006-01-17 10:06:18 51°16.108 2°54.118 334.7 0.6 225 10.9
2006-01-17 10:06:23 51°16.107 2°54.117 334.5 0.6 226 10.9
2006-01-17 10:06:29 51°16.106 2°54.116 334.6 0.6 224 10.9
2006-01-17 10:06:34 51°16.106 2°54.115 334.5 0.7 224 10.7
2006-01-17 10:06:39 51°16.105 2°54.115 334.4 0.6 224 10.9
2006-01-17 10:06:43 51°16.105 2°54.114 334.5 0.6 220 10.8
2006-01-17 10:06:49 51°16.104 2°54.113 334.1 0.6 222 10.8
2006-01-17 10:06:54 51°16.103 2°54.112 334.4 0.5 225 10.9
2006-01-17 10:06:58 51°16.103 2°54.111 334.3 0.5 223 10.9
2006-01-17 10:07:03 51°16.102 2°54.11 334 0.6 220 10.9
2006-01-17 10:07:09 51°16.102 2°54.109 334.4 0.6 223 10.9
2006-01-17 10:07:14 51°16.101 2°54.109 334.2 0.7 227 10.9
2006-01-17 10:07:19 51°16.1 2°54.108 334 0.6 221 10.8
2006-01-17 10:07:23 51°16.1 2°54.107 333.8 0.6 223 10.9
2006-01-17 10:07:27 51°16.099 2°54.106 333.5 0.6 226 10.9
2006-01-17 10:07:34 51°16.099 2°54.105 333.4 0.6 224 10.9
2006-01-17 10:07:39 51°16.098 2°54.104 333.1 0.6 225 10.9
2006-01-17 10:07:43 51°16.098 2°54.104 332.9 0.5 223 10.9
2006-01-17 10:07:47 51°16.097 2°54.103 332.7 0.6 224 10.8
2006-01-17 10:07:53 51°16.097 2°54.101 333.1 0.5 222 10.9
2006-01-17 10:07:59 51°16.096 2°54.1 332.7 0.5 253 10.9
2006-01-17 10:08:03 51°16.097 2°54.098 333.2 0.8 292 10.9
2006-01-17 10:08:07 51°16.098 2°54.096 335.5 1.3 307 10.9
2006-01-17 10:08:13 51°16.099 2°54.094 339.9 1.6 314 10.9
2006-01-17 10:08:18 51°16.102 2°54.091 343.8 1.8 325 10.8
2006-01-17 10:08:23 51°16.104 2°54.089 350.3 2.1 332 10.8
2006-01-17 10:08:28 51°16.108 2°54.087 354.9 2.3 341 10.7
2006-01-17 10:08:34 51°16.112 2°54.086 2.1 2.5 346 10.8
2006-01-17 10:08:38 51°16.115 2°54.086 7 2.6 357 10.9
2006-01-17 10:08:43 51°16.119 2°54.086 13 2.8 2 10.8
2006-01-17 10:08:49 51°16.124 2°54.088 18.7 2.9 8 10.9
2006-01-17 10:08:54 51°16.128 2°54.091 24.5 3.1 17 10.9
2006-01-17 10:08:58 51°16.131 2°54.093 30.3 3.2 27 10.9
2006-01-17 10:09:03 51°16.135 2°54.098 37.3 3.3 33 11
2006-01-17 10:09:08 51°16.139 2°54.103 42.8 3.5 37 10.9
2006-01-17 10:09:13 51°16.142 2°54.109 47.1 3.7 43 10.9
2006-01-17 10:09:18 51°16.147 2°54.114 48.6 3.9 39 11
2006-01-17 10:09:23 51°16.151 2°54.12 49.3 4.1 46 11
2006-01-17 10:09:27 51°16.154 2°54.126 49.3 4.2 42 10.9
2006-01-17 10:09:33 51°16.159 2°54.134 49.3 4.4 44 10.9
2006-01-17 10:09:38 51°16.164 2°54.14 48.6 4.5 44 10.9
2006-01-17 10:09:43 51°16.168 2°54.148 48.1 4.6 45 10.9
2006-01-17 10:09:47 51°16.172 2°54.153 48.1 4.7 41 10.8
2006-01-17 10:09:53 51°16.179 2°54.161 47.8 4.9 41 10.9
2006-01-17 10:09:58 51°16.184 2°54.169 46.1 4.9 42 10.9
2006-01-17 10:10:03 51°16.189 2°54.176 44.9 5 38 10.9
2006-01-17 10:10:08 51°16.195 2°54.182 43.8 5.1 37 10.9
2006-01-17 10:10:13 51°16.2 2°54.189 42.8 5.2 36 10.9
2006-01-17 10:10:18 51°16.206 2°54.196 42 5.2 35 11
2006-01-17 10:10:23 51°16.212 2°54.202 41.2 5.3 35 10.9
2006-01-17 10:10:28 51°16.218 2°54.209 40.9 5.4 34 10.9
2006-01-17 10:10:33 51°16.224 2°54.215 40.9 5.1 35 10.9
2006-01-17 10:10:38 51°16.23 2°54.221 40.7 4.8 34 10.9
2006-01-17 10:10:43 51°16.235 2°54.226 40.8 4.6 33 10.9
2006-01-17 10:10:47 51°16.239 2°54.231 40.5 4.4 36 11
2006-01-17 10:10:53 51°16.245 2°54.237 40.5 4.2 31 10.9
2006-01-17 10:10:58 51°16.249 2°54.242 40.1 3.9 35 10.9
2006-01-17 10:11:03 51°16.254 2°54.246 39.8 3.8 32 11
2006-01-17 10:11:08 51°16.258 2°54.25 39.7 3.6 34 11
2006-01-17 10:11:13 51°16.262 2°54.254 39.7 3.4 32 11
2006-01-17 10:11:18 51°16.265 2°54.258 39.7 3.2 33 11
2006-01-17 10:11:23 51°16.269 2°54.262 39.4 3.1 32 11
2006-01-17 10:11:28 51°16.273 2°54.265 40 3 32 11
2006-01-17 10:11:33 51°16.276 2°54.268 40.8 2.8 37 11
2006-01-17 10:11:38 51°16.278 2°54.272 42 2.7 37 10.9
2006-01-17 10:11:43 51°16.281 2°54.276 43.8 2.6 37 10.9
2006-01-17 10:11:47 51°16.283 2°54.278 45.5 2.5 41 10.9
2006-01-17 10:11:53 51°16.286 2°54.282 47.1 2.4 43 10.9
2006-01-17 10:11:58 51°16.288 2°54.285 49 2.2 44 11
2006-01-17 10:12:03 51°16.29 2°54.289 50.8 2.1 49 11
2006-01-17 10:12:07 51°16.291 2°54.292 52.8 2 50 11
2006-01-17 10:12:13 51°16.293 2°54.296 54.4 1.9 58 11
2006-01-17 10:12:18 51°16.295 2°54.299 56 1.8 50 11
2006-01-17 10:12:23 51°16.296 2°54.302 57.4 1.7 60 11
2006-01-17 10:12:27 51°16.297 2°54.305 58.1 1.7 55 11
2006-01-17 10:12:33 51°16.298 2°54.308 59.5 1.6 60 11
2006-01-17 10:12:38 51°16.299 2°54.311 60.6 1.5 60 11
2006-01-17 10:12:43 51°16.3 2°54.314 61.4 1.5 62 11
2006-01-17 10:12:48 51°16.301 2°54.317 62.6 1.4 65 11
2006-01-17 10:12:53 51°16.301 2°54.319 63.5 1.4 66 11
2006-01-17 10:12:58 51°16.302 2°54.322 64.3 1.3 65 11
2006-01-17 10:13:03 51°16.303 2°54.324 65.4 1.3 68 11
2006-01-17 10:13:07 51°16.303 2°54.326 66 1.2 75 11
2006-01-17 10:13:13 51°16.303 2°54.329 66.7 1.2 77 11
2006-01-17 10:13:18 51°16.303 2°54.332 67.8 1.2 76 11
2006-01-17 10:13:23 51°16.304 2°54.334 68.8 1.1 82 11
2006-01-17 10:13:27 51°16.304 2°54.336 69.6 1.1 77 11
2006-01-17 10:13:33 51°16.304 2°54.338 70.4 1.1 82 11
2006-01-17 10:13:38 51°16.304 2°54.34 71.1 1 77 11
2006-01-17 10:13:43 51°16.304 2°54.342 72.1 1 85 11
2006-01-17 10:13:47 51°16.304 2°54.344 72.7 0.9 84 11
2006-01-17 10:13:53 51°16.304 2°54.346 73.4 0.9 86 10.9
2006-01-17 10:13:57 51°16.304 2°54.348 74.3 0.9 91 11
2006-01-17 10:14:03 51°16.304 2°54.35 75.2 0.9 94 11
2006-01-17 10:14:07 51°16.303 2°54.352 75.8 0.9 96 11
2006-01-17 10:14:13 51°16.303 2°54.354 76.5 0.8 103 11
2006-01-17 10:14:18 51°16.303 2°54.356 77.3 0.8 100 11
2006-01-17 10:14:23 51°16.302 2°54.357 78.3 0.8 112 11
2006-01-17 10:14:27 51°16.302 2°54.359 79.1 0.8 103 11
2006-01-17 10:14:33 51°16.302 2°54.361 80.2 0.8 107 11
2006-01-17 10:14:37 51°16.301 2°54.362 81 0.8 114 11
2006-01-17 10:14:43 51°16.301 2°54.364 81.5 0.7 107 10.9
2006-01-17 10:14:47 51°16.301 2°54.365 82.3 0.8 118 11
2006-01-17 10:14:53 51°16.3 2°54.367 82.8 0.7 115 11
2006-01-17 10:14:57 51°16.3 2°54.368 83.7 0.8 116 11
2006-01-17 10:15:03 51°16.299 2°54.369 84.6 0.7 117 11
2006-01-17 10:15:07 51°16.299 2°54.371 85.2 0.7 125 11.1
2006-01-17 10:15:13 51°16.298 2°54.372 85.8 0.7 126 11.1
2006-01-17 10:15:17 51°16.298 2°54.373 86.7 0.7 124 11
2006-01-17 10:15:23 51°16.297 2°54.375 87.5 0.7 126 11
2006-01-17 10:15:28 51°16.296 2°54.376 88.2 0.7 128 11
2006-01-17 10:15:33 51°16.296 2°54.377 88.8 0.7 131 11
2006-01-17 10:15:37 51°16.295 2°54.378 89.5 0.7 131 11
2006-01-17 10:15:42 51°16.294 2°54.379 90.2 0.7 136 11
2006-01-17 10:15:47 51°16.294 2°54.38 90.8 0.7 135 11.1
2006-01-17 10:15:53 51°16.293 2°54.381 91.3 0.7 135 11.1
2006-01-17 10:15:57 51°16.292 2°54.382 91.8 0.6 133 11
2006-01-17 10:16:03 51°16.291 2°54.383 92.5 0.7 141 11
2006-01-17 10:16:07 51°16.291 2°54.384 93 0.7 142 11
2006-01-17 10:16:13 51°16.29 2°54.385 93.9 0.6 144 11
2006-01-17 10:16:18 51°16.289 2°54.386 94.3 0.7 145 11
2006-01-17 10:16:22 51°16.289 2°54.387 95 0.6 142 11
2006-01-17 10:16:27 51°16.288 2°54.387 95.8 0.7 144 11
2006-01-17 10:16:33 51°16.287 2°54.389 96.5 0.7 146 11
2006-01-17 10:16:38 51°16.286 2°54.389 97.2 0.7 146 11
2006-01-17 10:16:43 51°16.286 2°54.39 98 0.7 151 11.1
2006-01-17 10:16:48 51°16.285 2°54.391 98.7 0.6 149 11
2006-01-17 10:16:53 51°16.284 2°54.392 99.4 0.7 150 11
2006-01-17 10:16:58 51°16.283 2°54.392 100.3 0.6 152 11.1
2006-01-17 10:17:03 51°16.282 2°54.393 101.1 0.7 156 11
2006-01-17 10:17:07 51°16.282 2°54.393 101.8 0.7 157 11
2006-01-17 10:17:13 51°16.281 2°54.394 102.9 0.8 165 11.1
2006-01-17 10:17:18 51°16.28 2°54.394 103.7 0.7 163 11
2006-01-17 10:17:23 51°16.279 2°54.395 104.5 0.6 162 11.1
2006-01-17 10:17:28 51°16.278 2°54.396 105.5 0.6 163 11.1
2006-01-17 10:17:31 51°16.277 2°54.396 106.5 0.7 161 11.1
2006-01-17 10:17:38 51°16.276 2°54.396 107.4 0.7 161 11
2006-01-17 10:17:43 51°16.275 2°54.397 108.1 0.8 163 11.1
2006-01-17 10:17:48 51°16.274 2°54.397 109.1 0.7 164 11
2006-01-17 10:17:53 51°16.273 2°54.398 110.2 0.7 166 11.1
2006-01-17 10:17:58 51°16.272 2°54.398 111.1 0.8 169 11
2006-01-17 10:18:03 51°16.271 2°54.398 111.9 0.7 165 11
2006-01-17 10:18:07 51°16.27 2°54.399 112.9 0.7 167 11.1
2006-01-17 10:18:13 51°16.269 2°54.399 113.8 0.7 168 11.1
2006-01-17 10:18:17 51°16.268 2°54.399 114.6 0.8 172 11.1
2006-01-17 10:18:23 51°16.267 2°54.4 115.3 0.7 171 11.1
2006-01-17 10:18:27 51°16.266 2°54.4 116.4 0.7 171 11.1
2006-01-17 10:18:33 51°16.265 2°54.4 117.1 0.6 172 11.1
2006-01-17 10:18:38 51°16.264 2°54.401 117.9 0.7 172 11.1
2006-01-17 10:18:42 51°16.263 2°54.401 118.6 0.7 172 11.1
2006-01-17 10:18:47 51°16.262 2°54.401 119 0.7 173 11.1
2006-01-17 10:18:53 51°16.261 2°54.401 119.9 0.7 177 11.1
2006-01-17 10:18:58 51°16.26 2°54.401 120.7 0.7 175 11.1
2006-01-17 10:19:03 51°16.259 2°54.401 121.5 0.7 177 11.1
2006-01-17 10:19:07 51°16.258 2°54.401 122.3 0.7 177 11.1
2006-01-17 10:19:11 51°16.258 2°54.401 123 0.7 177 11.1
2006-01-17 10:19:18 51°16.256 2°54.401 123.8 0.6 174 11.1
2006-01-17 10:19:23 51°16.255 2°54.401 124.5 0.7 178 11
2006-01-17 10:19:27 51°16.254 2°54.402 125.1 0.7 175 11.1
2006-01-17 10:19:33 51°16.253 2°54.401 125.6 0.7 181 11.1
2006-01-17 10:19:37 51°16.253 2°54.401 126.6 0.7 181 11.1
2006-01-17 10:19:43 51°16.251 2°54.401 127.2 0.7 182 11.1
2006-01-17 10:19:47 51°16.251 2°54.401 127.7 0.7 184 11.1
2006-01-17 10:19:53 51°16.249 2°54.401 128.1 0.7 185 11.2
2006-01-17 10:19:57 51°16.249 2°54.401 128.8 0.7 183 11.1
2006-01-17 10:20:03 51°16.248 2°54.401 129.3 0.7 183 11.1
2006-01-17 10:20:08 51°16.247 2°54.401 129.8 0.7 186 11.1
2006-01-17 10:20:13 51°16.246 2°54.401 130.2 0.7 182 11.1
2006-01-17 10:20:17 51°16.245 2°54.401 130.7 0.7 186 11.1
2006-01-17 10:20:23 51°16.244 2°54.4 131.3 0.7 187 11.1
2006-01-17 10:20:27 51°16.243 2°54.4 131.9 0.7 186 11.1
2006-01-17 10:20:33 51°16.242 2°54.4 132.2 0.7 182 11
2006-01-17 10:20:38 51°16.241 2°54.4 132.5 0.8 191 11.1
2006-01-17 10:20:43 51°16.24 2°54.399 133.5 0.6 182 11.1
2006-01-17 10:20:47 51°16.239 2°54.399 134.3 0.7 192 11.1
2006-01-17 10:20:53 51°16.238 2°54.399 135 0.6 186 11
2006-01-17 10:20:58 51°16.237 2°54.399 135.3 0.8 192 11.1
2006-01-17 10:21:03 51°16.236 2°54.398 136 0.6 188 11.1
2006-01-17 10:21:07 51°16.235 2°54.398 136.5 0.7 190 11.1
2006-01-17 10:21:13 51°16.234 2°54.398 137.1 0.7 190 11.1
2006-01-17 10:21:17 51°16.233 2°54.398 137.3 0.7 192 11.1
2006-01-17 10:21:23 51°16.233 2°54.397 137.8 0.6 187 11.1
2006-01-17 10:21:27 51°16.232 2°54.397 138.2 0.7 194 11.1
2006-01-17 10:21:33 51°16.231 2°54.397 138.8 0.6 189 11.1
2006-01-17 10:21:37 51°16.23 2°54.396 139.3 0.6 191 11.1
2006-01-17 10:21:43 51°16.229 2°54.396 139.4 0.7 194 11.1
2006-01-17 10:21:48 51°16.228 2°54.396 139.6 0.7 194 11.1
2006-01-17 10:21:53 51°16.227 2°54.395 139.9 0.6 195 11.2
2006-01-17 10:21:57 51°16.226 2°54.395 140 0.6 195 11.1
2006-01-17 10:22:03 51°16.225 2°54.395 140.1 0.7 194 11.1
2006-01-17 10:22:07 51°16.224 2°54.394 140.4 0.6 197 11.2
2006-01-17 10:22:13 51°16.224 2°54.394 140.6 0.6 197 11.1
2006-01-17 10:22:18 51°16.223 2°54.393 140.8 0.6 197 11.1
2006-01-17 10:22:22 51°16.223 2°54.393 140.9 0.6 197 11.1
2006-01-17 10:22:27 51°16.222 2°54.393 141.2 0.7 197 11.1
2006-01-17 10:22:33 51°16.221 2°54.392 141.2 0.6 196 11.2
2006-01-17 10:22:37 51°16.221 2°54.392 141.5 0.6 195 11.2
2006-01-17 10:22:43 51°16.22 2°54.392 141.5 0.6 197 11.2
2006-01-17 10:22:48 51°16.219 2°54.391 141.7 0.5 197 11.1
2006-01-17 10:22:53 51°16.218 2°54.391 141.8 0.6 197 11.2
2006-01-17 10:22:58 51°16.217 2°54.391 142 0.6 195 11.1
2006-01-17 10:23:03 51°16.216 2°54.39 142.1 0.6 198 11.1
2006-01-17 10:23:08 51°16.215 2°54.39 142.4 0.6 198 11.2
2006-01-17 10:23:13 51°16.215 2°54.389 142.9 0.6 200 11.1
2006-01-17 10:23:18 51°16.214 2°54.389 143.1 0.6 193 11.1
2006-01-17 10:23:23 51°16.213 2°54.388 143.4 0.6 197 11.1
2006-01-17 10:23:27 51°16.213 2°54.388 143.7 0.6 192 11.1
2006-01-17 10:23:33 51°16.212 2°54.388 144 0.6 194 11.1
2006-01-17 10:23:37 51°16.211 2°54.387 144.4 0.6 198 11.1
2006-01-17 10:23:43 51°16.21 2°54.387 144.9 0.6 200 11.1
2006-01-17 10:23:47 51°16.209 2°54.387 145.5 0.6 198 11.1
2006-01-17 10:23:53 51°16.209 2°54.386 145.9 0.5 202 11.1
2006-01-17 10:23:58 51°16.208 2°54.386 146.3 0.6 203 11.1
2006-01-17 10:24:03 51°16.207 2°54.385 146.7 0.6 199 11.1
2006-01-17 10:24:07 51°16.206 2°54.385 147 0.5 198 11.2
2006-01-17 10:24:13 51°16.205 2°54.384 147.5 0.6 203 11.2
2006-01-17 10:24:18 51°16.204 2°54.384 147.4 0.6 202 11.1
2006-01-17 10:24:23 51°16.204 2°54.384 148 0.5 188 11.1
2006-01-17 10:24:27 51°16.203 2°54.383 148.6 0.6 201 11.1
2006-01-17 10:24:33 51°16.202 2°54.382 148.6 0.6 199 11.1
2006-01-17 10:24:38 51°16.202 2°54.382 149.2 0.5 195 11.1
2006-01-17 10:24:43 51°16.201 2°54.382 149.3 0.6 203 11.2
2006-01-17 10:24:47 51°16.2 2°54.382 149.5 0.5 197 11.2
2006-01-17 10:24:53 51°16.2 2°54.381 149.7 0.5 203 11.2
2006-01-17 10:24:58 51°16.199 2°54.381 149.7 0.6 203 11.1
2006-01-17 10:25:03 51°16.198 2°54.38 150 0.5 203 11.2
2006-01-17 10:25:08 51°16.198 2°54.38 150.4 0.4 192 11.2
2006-01-17 10:25:13 51°16.197 2°54.38 150.6 0.6 201 11.1
2006-01-17 10:25:18 51°16.196 2°54.379 150.4 0.5 193 11.1
2006-01-17 10:25:23 51°16.196 2°54.379 150.5 0.6 199 11.1
2006-01-17 10:25:27 51°16.195 2°54.378 150.7 0.5 193 11.1
2006-01-17 10:25:33 51°16.194 2°54.378 150.9 0.5 201 11.2
2006-01-17 10:25:37 51°16.194 2°54.378 150.9 0.4 196 11.2
2006-01-17 10:25:42 51°16.193 2°54.377 151.2 0.5 199 11.2
2006-01-17 10:25:47 51°16.192 2°54.377 151.2 0.6 203 11.1
2006-01-17 10:25:53 51°16.191 2°54.377 151 0.5 197 11.1
2006-01-17 10:25:57 51°16.191 2°54.376 151.1 0.5 200 11.1
2006-01-17 10:26:03 51°16.19 2°54.376 151 0.5 198 11.2
2006-01-17 10:26:07 51°16.189 2°54.375 151.2 0.5 198 11.2
2006-01-17 10:26:13 51°16.188 2°54.375 151 0.6 204 11.2
2006-01-17 10:26:18 51°16.188 2°54.375 151 0.5 195 11.2
2006-01-17 10:26:23 51°16.187 2°54.374 151 0.6 206 11.2
2006-01-17 10:26:27 51°16.187 2°54.374 151 0.5 194 11.2
2006-01-17 10:26:33 51°16.186 2°54.373 151 0.6 200 11.2
2006-01-17 10:26:38 51°16.185 2°54.373 150.9 0.6 197 11.1
2006-01-17 10:26:43 51°16.184 2°54.372 150.8 0.6 199 11.1
2006-01-17 10:26:47 51°16.184 2°54.372 150.9 0.5 199 11.1
2006-01-17 10:26:53 51°16.183 2°54.372 150.9 0.5 199 11.2
2006-01-17 10:26:57 51°16.182 2°54.371 150.9 0.6 198 11.1
2006-01-17 10:27:03 51°16.181 2°54.371 150.9 0.5 199 11.2
2006-01-17 10:27:07 51°16.181 2°54.371 150.9 0.5 199 11.2
2006-01-17 10:27:13 51°16.18 2°54.37 150.9 0.5 194 11.1
2006-01-17 10:27:18 51°16.179 2°54.37 150.9 0.7 200 11.1
2006-01-17 10:27:23 51°16.179 2°54.369 150.6 0.5 192 11.1
2006-01-17 10:27:27 51°16.178 2°54.369 150.9 0.6 197 11.1
2006-01-17 10:27:33 51°16.177 2°54.369 150.9 0.6 196 11.1
2006-01-17 10:27:37 51°16.177 2°54.369 150.9 0.5 195 11.2
2006-01-17 10:27:43 51°16.176 2°54.368 151.2 0.5 194 11.1
2006-01-17 10:27:47 51°16.175 2°54.368 151.1 0.5 198 11.2
2006-01-17 10:27:53 51°16.174 2°54.368 151.2 0.5 191 11.1
2006-01-17 10:27:57 51°16.174 2°54.367 151.4 0.6 201 11.2
2006-01-17 10:28:03 51°16.173 2°54.367 151.3 0.5 193 11.2
2006-01-17 10:28:07 51°16.173 2°54.367 151.5 0.5 191 11.2
2006-01-17 10:28:13 51°16.172 2°54.366 151.5 0.5 199 11.2
2006-01-17 10:28:17 51°16.171 2°54.366 151.4 0.5 193 11.2
2006-01-17 10:28:23 51°16.17 2°54.366 151.5 0.5 194 11.2
2006-01-17 10:28:27 51°16.17 2°54.365 151.3 0.5 201 11.2
2006-01-17 10:28:33 51°16.169 2°54.365 151.3 0.5 193 11.2
2006-01-17 10:28:38 51°16.168 2°54.365 151.4 0.6 196 11.2
2006-01-17 10:28:43 51°16.167 2°54.364 151.3 0.5 197 11.2
2006-01-17 10:28:48 51°16.167 2°54.364 151.3 0.4 194 11.2
2006-01-17 10:28:53 51°16.166 2°54.364 151.3 0.5 197 11.2
2006-01-17 10:28:58 51°16.165 2°54.364 151 0.4 194 11.2
2006-01-17 10:29:03 51°16.165 2°54.363 151.2 0.5 194 11.1
2006-01-17 10:29:07 51°16.164 2°54.363 150.9 0.6 199 11.1
2006-01-17 10:29:13 51°16.163 2°54.363 150.9 0.5 194 11.1
2006-01-17 10:29:18 51°16.163 2°54.362 151.1 0.5 190 11.2
2006-01-17 10:29:23 51°16.162 2°54.362 150.9 0.5 199 11.1
2006-01-17 10:29:27 51°16.161 2°54.362 150.9 0.4 191 11.2
2006-01-17 10:29:33 51°16.161 2°54.362 150.8 0.5 192 11.2
2006-01-17 10:29:38 51°16.16 2°54.361 150.7 0.5 195 11.1
2006-01-17 10:29:43 51°16.159 2°54.361 150.7 0.5 196 11.2
2006-01-17 10:29:47 51°16.159 2°54.361 150.9 0.4 187 11.2
2006-01-17 10:29:52 51°16.158 2°54.36 151.2 0.6 199 11.1
2006-01-17 10:29:58 51°16.157 2°54.36 150.9 0.5 189 11.1
2006-01-17 10:30:03 51°16.156 2°54.36 151.1 0.5 199 11.2
2006-01-17 10:30:07 51°16.156 2°54.36 151.5 0.4 187 11.2
2006-01-17 10:30:13 51°16.155 2°54.36 151.7 0.5 193 11.2
2006-01-17 10:30:17 51°16.154 2°54.359 151.6 0.6 199 11.2
2006-01-17 10:30:23 51°16.153 2°54.359 151.7 0.5 189 11.2
2006-01-17 10:30:28 51°16.153 2°54.359 151.8 0.5 193 11.2
2006-01-17 10:30:33 51°16.152 2°54.359 151.7 0.5 190 11.2
2006-01-17 10:30:38 51°16.151 2°54.358 151.7 0.5 189 11.2
2006-01-17 10:30:43 51°16.151 2°54.358 151.6 0.5 193 11.2
2006-01-17 10:30:47 51°16.15 2°54.358 151.6 0.5 193 11.1
2006-01-17 10:30:53 51°16.149 2°54.357 151.7 0.5 190 11.1
2006-01-17 10:30:58 51°16.149 2°54.357 151.7 0.5 199 11.1
2006-01-17 10:31:03 51°16.148 2°54.357 151.8 0.5 195 11.1
2006-01-17 10:31:07 51°16.147 2°54.357 152 0.5 194 11.2
2006-01-17 10:31:11 51°16.147 2°54.356 152.2 0.5 191 11.2
2006-01-17 10:31:18 51°16.146 2°54.356 152.3 0.5 192 11.1
2006-01-17 10:31:23 51°16.145 2°54.356 152.3 0.5 195 11.1
2006-01-17 10:31:27 51°16.144 2°54.355 152.4 0.6 197 11.1
2006-01-17 10:31:33 51°16.143 2°54.355 152.6 0.5 190 11.2
2006-01-17 10:31:38 51°16.143 2°54.355 152.7 0.5 196 11.1
2006-01-17 10:31:43 51°16.142 2°54.354 152.5 0.5 195 11.2
2006-01-17 10:31:48 51°16.141 2°54.354 152.6 0.5 197 11.2
2006-01-17 10:31:53 51°16.141 2°54.354 152.7 0.6 200 11.1
2006-01-17 10:31:58 51°16.14 2°54.354 152.7 0.5 190 11.2
2006-01-17 10:32:03 51°16.139 2°54.353 152.8 0.6 191 11.2
2006-01-17 10:32:07 51°16.138 2°54.353 153.1 0.5 190 11.2
2006-01-17 10:32:13 51°16.138 2°54.353 153.1 0.5 188 11.1
2006-01-17 10:32:18 51°16.137 2°54.353 153.1 0.6 197 11.1
2006-01-17 10:32:23 51°16.136 2°54.352 153.4 0.5 188 11.1
2006-01-17 10:32:27 51°16.136 2°54.352 153.7 0.5 190 11.1
2006-01-17 10:32:33 51°16.134 2°54.352 153.8 0.5 191 11.1
2006-01-17 10:32:38 51°16.134 2°54.352 153.8 0.5 193 11.1
2006-01-17 10:32:42 51°16.133 2°54.351 154.1 0.6 192 11.2
2006-01-17 10:32:48 51°16.132 2°54.351 154.4 0.5 187 11.2
2006-01-17 10:32:53 51°16.131 2°54.351 154.5 0.6 193 11.2
2006-01-17 10:32:58 51°16.131 2°54.351 154.5 0.5 192 11.2
2006-01-17 10:33:03 51°16.13 2°54.35 154.5 0.5 188 11.1
2006-01-17 10:33:07 51°16.129 2°54.35 154.4 0.6 194 11.1
2006-01-17 10:33:13 51°16.128 2°54.35 154.4 0.6 191 11.1
2006-01-17 10:33:17 51°16.128 2°54.35 154.4 0.5 187 11.2
2006-01-17 10:33:23 51°16.127 2°54.349 154.6 0.6 196 11.2
2006-01-17 10:33:28 51°16.126 2°54.349 155 0.5 182 11.2
2006-01-17 10:33:33 51°16.125 2°54.349 155.3 0.6 194 11.2
2006-01-17 10:33:38 51°16.124 2°54.349 155.7 0.5 188 11.1
2006-01-17 10:33:43 51°16.123 2°54.348 155.9 0.6 197 11.1
2006-01-17 10:33:48 51°16.123 2°54.348 156 0.5 184 11.1
2006-01-17 10:33:53 51°16.122 2°54.348 156.2 0.5 193 11.2
2006-01-17 10:33:57 51°16.121 2°54.348 156 0.5 193 11.1
2006-01-17 10:34:03 51°16.12 2°54.347 156.1 0.5 189 11.1
2006-01-17 10:34:08 51°16.119 2°54.347 155.9 0.5 186 11.1
2006-01-17 10:34:13 51°16.119 2°54.347 155.7 0.6 196 11.1
2006-01-17 10:34:18 51°16.118 2°54.347 155.3 0.6 192 11.1
2006-01-17 10:34:23 51°16.117 2°54.346 155.3 0.5 187 11.1
2006-01-17 10:34:27 51°16.117 2°54.346 155.3 0.6 196 11.1
2006-01-17 10:34:33 51°16.116 2°54.346 155.1 0.5 189 11.2
2006-01-17 10:34:38 51°16.115 2°54.345 155.1 0.5 189 11.2
2006-01-17 10:34:43 51°16.114 2°54.345 154.9 0.5 187 11.3
2006-01-17 10:34:47 51°16.114 2°54.345 154.7 0.6 193 11.1
2006-01-17 10:34:53 51°16.113 2°54.345 154.4 0.5 188 11.2
2006-01-17 10:34:58 51°16.112 2°54.345 154.5 0.5 191 11.2
2006-01-17 10:35:03 51°16.111 2°54.344 154.3 0.5 196 11.1
2006-01-17 10:35:07 51°16.111 2°54.344 154.1 0.5 196 11.2
2006-01-17 10:35:13 51°16.11 2°54.344 153.9 0.5 190 11.1
2006-01-17 10:35:18 51°16.109 2°54.343 153.8 0.6 195 11.1
2006-01-17 10:35:23 51°16.109 2°54.342 153.8 0.6 190 11.1
2006-01-17 10:35:27 51°16.108 2°54.342 153.7 0.6 193 11.1
2006-01-17 10:35:33 51°16.107 2°54.342 153.8 0.5 186 11.1
2006-01-17 10:35:37 51°16.106 2°54.342 153.8 0.6 200 11.2
2006-01-17 10:35:43 51°16.105 2°54.341 153.8 0.5 186 11.2
2006-01-17 10:35:47 51°16.105 2°54.341 153.8 0.6 195 11.2
2006-01-17 10:35:53 51°16.104 2°54.341 153.8 0.6 189 11.1
2006-01-17 10:35:58 51°16.103 2°54.341 153.7 0.6 194 11.2
2006-01-17 10:36:02 51°16.102 2°54.341 153.7 0.7 183 11.2
2006-01-17 10:36:07 51°16.101 2°54.341 153.6 1 173 11.1
2006-01-17 10:36:13 51°16.098 2°54.342 154.4 1.4 169 11.1
2006-01-17 10:36:18 51°16.096 2°54.342 157.2 1.8 169 11.1
2006-01-17 10:36:23 51°16.093 2°54.343 161.2 2.1 173 11.1
2006-01-17 10:36:27 51°16.09 2°54.343 165.9 2.4 176 11.2
2006-01-17 10:36:33 51°16.085 2°54.343 172.1 2.8 179 11.1
2006-01-17 10:36:37 51°16.082 2°54.342 176.3 3 187 11.1
2006-01-17 10:36:42 51°16.077 2°54.341 182.1 3.2 190 11.1
2006-01-17 10:36:48 51°16.072 2°54.339 187.8 3.4 194 11.2
2006-01-17 10:36:53 51°16.067 2°54.336 193.5 3.6 198 11.1
2006-01-17 10:36:57 51°16.063 2°54.333 198.3 3.8 205 11.2
2006-01-17 10:37:03 51°16.057 2°54.328 205.4 3.9 210 11.1
2006-01-17 10:37:07 51°16.054 2°54.324 211.5 4.1 212 11.2
2006-01-17 10:37:13 51°16.048 2°54.317 216.4 4.2 217 11.2
2006-01-17 10:37:18 51°16.044 2°54.31 222.6 4.2 225 11.1
2006-01-17 10:37:23 51°16.04 2°54.303 228.6 4.3 229 11
2006-01-17 10:37:28 51°16.037 2°54.294 234.5 4.4 234 11.1
2006-01-17 10:37:33 51°16.034 2°54.286 241.1 4.4 240 11
2006-01-17 10:37:38 51°16.032 2°54.277 247.7 4.4 245 11.1
2006-01-17 10:37:43 51°16.03 2°54.267 254.4 4.4 251 11.1
2006-01-17 10:37:47 51°16.029 2°54.26 261.2 4.4 257 11.1
2006-01-17 10:37:53 51°16.028 2°54.248 269.2 4.4 263 11.1
2006-01-17 10:37:57 51°16.028 2°54.24 274.6 4.4 268 11.1
2006-01-17 10:38:03 51°16.029 2°54.229 282.7 4.4 275 11.1
2006-01-17 10:38:08 51°16.03 2°54.219 288.3 4.4 280 11.1
2006-01-17 10:38:13 51°16.032 2°54.211 295.4 4.2 288 11.1
2006-01-17 10:38:17 51°16.034 2°54.204 302.3 4.1 293 11.1
2006-01-17 10:38:23 51°16.038 2°54.195 309.5 4.1 301 11.2
2006-01-17 10:38:28 51°16.041 2°54.189 316.6 4 307 11.1
2006-01-17 10:38:33 51°16.045 2°54.183 323.9 3.9 317 11.1
2006-01-17 10:38:38 51°16.049 2°54.178 331 3.8 322 11.1
2006-01-17 10:38:43 51°16.054 2°54.174 338.2 3.7 333 11.1
2006-01-17 10:38:48 51°16.059 2°54.172 345.4 3.7 337 11.1
2006-01-17 10:38:53 51°16.064 2°54.171 354.3 3.5 349 11.1
2006-01-17 10:38:58 51°16.069 2°54.17 0.2 3.5 355 11.2
2006-01-17 10:39:03 51°16.074 2°54.171 7.6 3.5 4 11.2
2006-01-17 10:39:08 51°16.078 2°54.173 14.6 3.4 13 11.2
2006-01-17 10:39:13 51°16.083 2°54.176 21.4 3.4 22 11.2
2006-01-17 10:39:18 51°16.087 2°54.18 28.4 3.4 28 11.2
2006-01-17 10:39:23 51°16.091 2°54.184 35.3 3.5 36 11.2
2006-01-17 10:39:27 51°16.094 2°54.188 41.9 3.6 39 11.2
2006-01-17 10:39:33 51°16.098 2°54.195 46 3.8 39 11.3
2006-01-17 10:39:38 51°16.102 2°54.2 46.5 3.8 41 11.3
2006-01-17 10:39:43 51°16.107 2°54.206 44.2 4 36 11.3
2006-01-17 10:39:47 51°16.111 2°54.21 41.3 4.1 34 11.2
2006-01-17 10:39:53 51°16.117 2°54.216 38.4 4.3 31 11.2
2006-01-17 10:39:58 51°16.122 2°54.221 36.4 4.4 30 11.2
2006-01-17 10:40:03 51°16.128 2°54.226 34.5 4.5 31 11.2
2006-01-17 10:40:07 51°16.132 2°54.23 34.1 4.6 28 11.1
2006-01-17 10:40:13 51°16.14 2°54.235 33.1 4.8 26 11.1
2006-01-17 10:40:18 51°16.146 2°54.24 32.1 4.8 27 11.2
2006-01-17 10:40:23 51°16.152 2°54.245 30.9 4.9 27 11.2
2006-01-17 10:40:28 51°16.158 2°54.249 30.4 5 22 11.2
2006-01-17 10:40:33 51°16.165 2°54.253 29.4 5.1 23 11.3
2006-01-17 10:40:38 51°16.172 2°54.257 28.4 5.1 22 11.3
2006-01-17 10:40:43 51°16.178 2°54.261 27.4 5.2 19 11.3
2006-01-17 10:40:47 51°16.184 2°54.264 26.5 5.3 20 11.3
2006-01-17 10:40:53 51°16.192 2°54.269 25.4 5.3 19 11.3
2006-01-17 10:40:58 51°16.2 2°54.272 24.6 5.3 18 11.2
2006-01-17 10:41:03 51°16.207 2°54.276 24.5 5.4 18 11.3
2006-01-17 10:41:07 51°16.212 2°54.279 24.1 5.4 18 11.3
2006-01-17 10:41:13 51°16.221 2°54.283 23.9 5.5 17 11.2
2006-01-17 10:41:17 51°16.227 2°54.286 23.9 5.5 17 11.2
2006-01-17 10:41:23 51°16.236 2°54.291 23.8 5.5 17 11.2
2006-01-17 10:41:27 51°16.242 2°54.294 23.9 5.6 17 11.3
2006-01-17 10:41:33 51°16.25 2°54.299 25 5.6 21 11.3
2006-01-17 10:41:38 51°16.258 2°54.303 25.9 5.6 19 11.3
2006-01-17 10:41:43 51°16.265 2°54.308 28.1 5.6 22 11.3
2006-01-17 10:41:47 51°16.27 2°54.312 28.9 5.6 23 11.3
2006-01-17 10:41:53 51°16.279 2°54.317 29.2 5.4 23 11.3
2006-01-17 10:41:58 51°16.285 2°54.321 29 5.2 22 11.3
2006-01-17 10:42:03 51°16.291 2°54.325 28.5 4.8 21 11.3
2006-01-17 10:42:07 51°16.296 2°54.327 28 4.3 21 11.4
2006-01-17 10:42:13 51°16.301 2°54.331 27.1 3.8 21 11.3
2006-01-17 10:42:18 51°16.305 2°54.334 27.9 3.4 23 11.3
2006-01-17 10:42:23 51°16.309 2°54.337 31.1 2.8 30 11.2
2006-01-17 10:42:27 51°16.311 2°54.339 37 2.6 31 11.3
2006-01-17 10:42:33 51°16.314 2°54.343 40.9 2 42 11.3
2006-01-17 10:42:37 51°16.315 2°54.345 45.6 1.7 41 11.3
2006-01-17 10:42:43 51°16.316 2°54.347 49.8 1.2 51 11.3
2006-01-17 10:42:47 51°16.317 2°54.348 53.9 0.8 57 11.3
2006-01-17 10:42:53 51°16.317 2°54.35 59.4 0.6 69 11.3
2006-01-17 10:42:58 51°16.317 2°54.351 62.5 0.6 70 11.4
2006-01-17 10:43:03 51°16.317 2°54.352 66 0.5 82 11.3
2006-01-17 10:43:07 51°16.317 2°54.353 69.5 0.6 95 11.3
2006-01-17 10:43:13 51°16.317 2°54.355 72.5 0.6 96 11.3
2006-01-17 10:43:17 51°16.317 2°54.356 75 0.6 95 11.3
2006-01-17 10:43:23 51°16.317 2°54.357 77.2 0.6 100 11.3
2006-01-17 10:43:27 51°16.317 2°54.359 79.3 0.6 105 11.4
2006-01-17 10:43:33 51°16.316 2°54.36 80.9 0.7 106 11.3
2006-01-17 10:43:38 51°16.316 2°54.362 82.4 0.6 103 11.4
2006-01-17 10:43:43 51°16.316 2°54.363 83.7 0.7 111 11.4
2006-01-17 10:43:47 51°16.316 2°54.364 84.9 0.7 109 11.3
2006-01-17 10:43:53 51°16.315 2°54.366 86.1 0.7 117 11.3
2006-01-17 10:43:58 51°16.315 2°54.367 87.4 0.7 112 11.4
2006-01-17 10:44:03 51°16.314 2°54.369 88.5 0.7 121 11.3
2006-01-17 10:44:07 51°16.314 2°54.369 89.5 0.7 118 11.3
2006-01-17 10:44:13 51°16.313 2°54.371 90.8 0.7 123 11.3
2006-01-17 10:44:18 51°16.313 2°54.373 91.9 0.7 118 11.3
2006-01-17 10:44:23 51°16.312 2°54.374 92.9 0.7 124 11.3
2006-01-17 10:44:27 51°16.312 2°54.375 93.9 0.7 124 11.4
2006-01-17 10:44:33 51°16.311 2°54.377 95 0.7 127 11.3
2006-01-17 10:44:38 51°16.31 2°54.378 96.2 0.7 123 11.3
2006-01-17 10:44:43 51°16.31 2°54.379 97.2 0.7 127 11.3
2006-01-17 10:44:47 51°16.309 2°54.38 98.5 0.7 128 11.3
2006-01-17 10:44:53 51°16.308 2°54.381 99.6 0.7 131 11.3
2006-01-17 10:44:57 51°16.308 2°54.383 100.8 0.7 130 11.3
2006-01-17 10:45:03 51°16.307 2°54.384 101.9 0.7 129 11.4
2006-01-17 10:45:07 51°16.307 2°54.385 103 0.7 133 11.4
2006-01-17 10:45:13 51°16.306 2°54.386 103.7 0.7 134 11.4
2006-01-17 10:45:17 51°16.305 2°54.387 104.6 0.7 134 11.4
2006-01-17 10:45:23 51°16.305 2°54.388 105.7 0.7 138 11.4
2006-01-17 10:45:27 51°16.304 2°54.389 106.6 0.7 137 11.4
2006-01-17 10:45:33 51°16.303 2°54.39 107.5 0.7 136 11.4
2006-01-17 10:45:38 51°16.302 2°54.391 108.3 0.7 143 11.4
2006-01-17 10:45:43 51°16.302 2°54.392 109.3 0.6 136 11.4
2006-01-17 10:45:47 51°16.301 2°54.393 110.2 0.7 140 11.3
2006-01-17 10:45:53 51°16.3 2°54.394 111.1 0.7 142 11.4
2006-01-17 10:45:58 51°16.299 2°54.395 112 0.7 145 11.4